Time;durP1;ratioP1;P1;durP2;ratioP2;P2;SDS_P1;SDS_P2;PMS_P1;PMS_P2;Temp;Humidity;BMP_temperature;BMP_pressure;BME280_temperature;BME280_humidity;BME280_pressure;Samples;Min_cycle;Max_cycle;Signal;HPM_P1;HPM_P2
2023/10/26 00:01:14;;;;;;;14.18;8.88;;;10.90;99.90;;;;;;5051368;28;20533;-52
2023/10/26 00:03:39;;;;;;;17.70;9.82;;;10.80;99.90;;;;;;5051326;28;20170;-50
2023/10/26 00:06:05;;;;;;;12.65;10.50;;;10.90;99.90;;;;;;5051312;28;20182;-51
2023/10/26 00:08:30;;;;;;;12.93;9.77;;;10.90;99.90;;;;;;5051289;28;20174;-57
2023/10/26 00:11:00;;;;;;;11.85;8.38;;;10.90;99.90;;;;;;5051241;28;20222;-50
2023/10/26 00:13:26;;;;;;;13.43;9.07;;;10.90;99.90;;;;;;5051272;28;20163;-53
2023/10/26 00:15:52;;;;;;;12.18;9.45;;;10.90;99.90;;;;;;5051481;28;20162;-50
2023/10/26 00:18:17;;;;;;;15.05;10.23;;;10.90;99.90;;;;;;5051856;28;20166;-53
2023/10/26 00:20:45;;;;;;;15.10;10.80;;;10.90;99.90;;;;;;5051191;28;20158;-53
2023/10/26 00:23:10;;;;;;;14.40;10.98;;;10.90;99.90;;;;;;5051130;28;20162;-55
2023/10/26 00:25:36;;;;;;;18.17;12.70;;;10.80;99.90;;;;;;5051121;28;20533;-57
2023/10/26 00:28:02;;;;;;;15.45;11.10;;;10.90;99.90;;;;;;5051105;28;20206;-50
2023/10/26 00:30:27;;;;;;;14.63;9.70;;;10.80;99.90;;;;;;5050983;28;20202;-55
2023/10/26 00:32:53;;;;;;;14.75;9.85;;;10.80;99.90;;;;;;5051040;28;20245;-50
2023/10/26 00:35:18;;;;;;;12.98;8.32;;;10.90;99.90;;;;;;5051730;28;20167;-51
2023/10/26 00:37:44;;;;;;;14.27;9.18;;;10.80;99.90;;;;;;5050997;28;20228;-50
2023/10/26 00:40:10;;;;;;;12.77;8.38;;;10.90;99.90;;;;;;5050992;28;20205;-51
2023/10/26 00:42:36;;;;;;;11.85;7.60;;;10.90;99.90;;;;;;5052505;28;20170;-54
2023/10/26 00:45:02;;;;;;;11.57;7.88;;;10.80;99.90;;;;;;5054863;28;20181;-54
2023/10/26 00:47:28;;;;;;;9.20;7.28;;;10.80;99.90;;;;;;5054883;28;20215;-51
2023/10/26 00:49:54;;;;;;;10.88;8.38;;;10.80;99.90;;;;;;5055021;28;20214;-74
2023/10/26 00:52:21;;;;;;;13.60;9.60;;;10.80;99.90;;;;;;5055249;28;20177;-74
2023/10/26 00:54:47;;;;;;;15.05;10.57;;;10.80;99.90;;;;;;5055126;28;20173;-72
2023/10/26 00:57:15;;;;;;;16.45;11.45;;;10.60;99.90;;;;;;5054693;28;20622;-74
2023/10/26 00:59:44;;;;;;;15.13;10.75;;;10.80;99.90;;;;;;5054614;28;20163;-74
2023/10/26 01:02:10;;;;;;;17.27;12.32;;;10.60;99.90;;;;;;5054560;28;20202;-75
2023/10/26 01:04:35;;;;;;;18.00;13.02;;;10.60;99.90;;;;;;5054520;28;20645;-67
2023/10/26 01:07:01;;;;;;;18.65;13.32;;;10.70;99.90;;;;;;5054515;28;20170;-73
2023/10/26 01:09:26;;;;;;;17.40;12.55;;;10.60;99.90;;;;;;5054431;28;20202;-74
2023/10/26 01:11:52;;;;;;;20.30;13.50;;;10.60;99.90;;;;;;5054435;28;20173;-74
2023/10/26 01:14:18;;;;;;;19.67;13.65;;;10.60;99.90;;;;;;5055043;28;20217;-74
2023/10/26 01:16:44;;;;;;;22.40;15.15;;;10.60;99.90;;;;;;5054336;28;20198;-69
2023/10/26 01:19:09;;;;;;;21.73;14.35;;;10.70;99.90;;;;;;5054253;28;20222;-68
2023/10/26 01:21:56;;;;;;;24.92;16.17;;;10.70;99.90;;;;;;5054207;28;20166;-71
2023/10/26 01:24:21;;;;;;;24.20;15.77;;;10.60;99.90;;;;;;5054046;28;20174;-68
2023/10/26 01:26:47;;;;;;;19.20;13.13;;;10.60;99.90;;;;;;5054622;28;20177;-68
2023/10/26 01:29:13;;;;;;;24.25;16.88;;;10.60;99.90;;;;;;5054036;28;20221;-65
2023/10/26 01:31:38;;;;;;;24.63;17.20;;;10.60;99.90;;;;;;5053911;28;20178;-64
2023/10/26 01:34:04;;;;;;;26.50;17.27;;;10.70;99.90;;;;;;5053988;28;20167;-68
2023/10/26 01:36:30;;;;;;;24.00;16.52;;;10.60;99.90;;;;;;5053944;28;20610;-61
2023/10/26 01:38:55;;;;;;;26.42;16.88;;;10.60;99.90;;;;;;5053945;28;20174;-68
2023/10/26 01:41:21;;;;;;;27.70;16.98;;;10.50;99.90;;;;;;5053739;28;20181;-63
2023/10/26 01:43:47;;;;;;;26.15;16.20;;;10.60;99.90;;;;;;5054537;28;20170;-51
2023/10/26 01:46:13;;;;;;;24.92;16.67;;;10.60;99.90;;;;;;5053823;28;20264;-52
2023/10/26 01:48:39;;;;;;;26.15;14.70;;;10.60;99.90;;;;;;5053549;28;20692;-51
2023/10/26 01:51:04;;;;;;;27.23;18.00;;;10.70;99.90;;;;;;5053665;28;20214;-50
2023/10/26 01:53:30;;;;;;;23.02;15.80;;;10.60;99.90;;;;;;5053240;28;20190;-50
2023/10/26 01:55:56;;;;;;;24.55;15.35;;;10.60;99.90;;;;;;5053328;28;20538;-50
2023/10/26 01:58:21;;;;;;;22.33;15.45;;;10.60;99.90;;;;;;5053547;28;20163;-51
2023/10/26 02:00:47;;;;;;;21.05;13.57;;;10.60;99.90;;;;;;5053950;28;20163;-49
2023/10/26 02:03:12;;;;;;;21.35;14.63;;;10.70;99.90;;;;;;5053423;28;20243;-52
2023/10/26 02:05:38;;;;;;;21.75;14.63;;;10.60;99.90;;;;;;5053392;28;20163;-51
2023/10/26 02:08:03;;;;;;;21.75;15.02;;;10.70;99.90;;;;;;5053308;28;20167;-50
2023/10/26 02:10:29;;;;;;;24.95;16.63;;;10.60;99.90;;;;;;5053461;28;20217;-49
2023/10/26 02:12:56;;;;;;;26.20;16.58;;;10.60;99.90;;;;;;5053313;28;20167;-50
2023/10/26 02:15:22;;;;;;;27.30;16.83;;;10.70;99.90;;;;;;5053426;28;20304;-50
2023/10/26 02:17:48;;;;;;;23.33;16.23;;;10.70;99.90;;;;;;5053630;28;20261;-50
2023/10/26 02:20:14;;;;;;;26.60;17.50;;;10.60;99.90;;;;;;5053123;28;20254;-51
2023/10/26 02:22:39;;;;;;;21.95;16.42;;;10.60;99.90;;;;;;5053108;28;20695;-50
2023/10/26 02:25:05;;;;;;;21.55;15.65;;;10.70;99.90;;;;;;5053030;28;20649;-50
2023/10/26 02:27:32;;;;;;;24.55;16.75;;;10.60;99.90;;;;;;5053051;28;20253;-52
2023/10/26 02:29:57;;;;;;;22.33;17.27;;;10.70;99.90;;;;;;5052888;28;20198;-50
2023/10/26 02:32:23;;;;;;;20.95;15.23;;;10.60;99.90;;;;;;5052972;28;20182;-50
2023/10/26 02:34:49;;;;;;;23.30;15.93;;;10.70;99.90;;;;;;5053216;28;20171;-50
2023/10/26 02:37:15;;;;;;;19.92;14.98;;;10.60;99.90;;;;;;5052788;28;20167;-51
2023/10/26 02:39:40;;;;;;;26.00;16.75;;;10.60;99.90;;;;;;5051456;28;20167;-50
2023/10/26 02:42:06;;;;;;;27.83;17.25;;;10.70;99.90;;;;;;5052963;28;20167;-50
2023/10/26 02:44:31;;;;;;;25.63;17.55;;;10.60;99.90;;;;;;5052695;28;20230;-50
2023/10/26 02:46:57;;;;;;;25.75;16.75;;;10.60;99.90;;;;;;5052390;28;20249;-70
2023/10/26 02:49:22;;;;;;;26.10;16.45;;;10.70;99.90;;;;;;5052526;28;20234;-75
2023/10/26 02:51:48;;;;;;;24.38;17.17;;;10.70;99.90;;;;;;5052967;28;20194;-68
2023/10/26 02:54:14;;;;;;;24.77;17.83;;;10.70;99.90;;;;;;5052398;28;20201;-74
2023/10/26 02:56:40;;;;;;;23.40;16.23;;;10.70;99.90;;;;;;5052361;28;20640;-75
2023/10/26 02:59:06;;;;;;;22.13;15.07;;;10.70;99.90;;;;;;5052398;28;20167;-74
2023/10/26 03:01:33;;;;;;;24.73;15.88;;;10.70;99.90;;;;;;5052343;28;20533;-61
2023/10/26 03:04:00;;;;;;;20.20;14.07;;;10.50;99.90;;;;;;5052530;28;20194;-69
2023/10/26 03:06:25;;;;;;;19.25;14.10;;;10.70;99.90;;;;;;5051255;28;20167;-76
2023/10/26 03:08:51;;;;;;;18.15;13.50;;;10.60;99.90;;;;;;5052046;28;20189;-71
2023/10/26 03:11:16;;;;;;;17.80;13.73;;;10.60;99.90;;;;;;5052901;28;20258;-71
2023/10/26 03:13:42;;;;;;;18.60;12.65;;;10.60;99.90;;;;;;5052385;28;20170;-76
2023/10/26 03:16:07;;;;;;;20.92;15.27;;;10.50;99.90;;;;;;5052048;28;20166;-75
2023/10/26 03:18:33;;;;;;;17.98;13.32;;;10.60;99.90;;;;;;5052007;28;20237;-72
2023/10/26 03:20:58;;;;;;;16.45;13.50;;;10.50;99.90;;;;;;5051983;28;20254;-70
2023/10/26 03:23:24;;;;;;;19.25;13.70;;;10.50;99.90;;;;;;5051910;28;20207;-68
2023/10/26 03:25:49;;;;;;;22.15;14.02;;;10.50;99.90;;;;;;5051922;28;20167;-58
2023/10/26 03:28:15;;;;;;;18.48;14.60;;;10.60;99.90;;;;;;5052586;28;20232;-71
2023/10/26 03:30:40;;;;;;;16.25;12.98;;;10.50;99.90;;;;;;5051740;28;20581;-59
2023/10/26 03:33:06;;;;;;;14.45;10.90;;;10.60;99.90;;;;;;5051743;28;20166;-75
2023/10/26 03:35:37;;;;;;;19.33;12.18;;;10.50;99.90;;;;;;5051804;28;20181;-69
2023/10/26 03:38:03;;;;;;;15.18;11.93;;;10.50;99.90;;;;;;5051902;28;20205;-75
2023/10/26 03:40:29;;;;;;;16.73;12.57;;;10.50;99.90;;;;;;5051674;28;20187;-66
2023/10/26 03:42:54;;;;;;;14.85;12.45;;;10.60;99.90;;;;;;5052035;28;20167;-65
2023/10/26 03:45:20;;;;;;;16.13;13.20;;;10.50;99.90;;;;;;5051256;28;20170;-53
2023/10/26 03:47:45;;;;;;;20.60;13.45;;;10.60;99.90;;;;;;5051795;28;20222;-75
2023/10/26 03:50:11;;;;;;;18.20;11.68;;;10.60;99.90;;;;;;5051611;28;20233;-70
2023/10/26 03:52:36;;;;;;;17.85;12.68;;;10.60;99.90;;;;;;5051362;28;20174;-51
2023/10/26 03:55:04;;;;;;;16.08;12.32;;;10.40;99.90;;;;;;5051428;28;20170;-51
2023/10/26 03:57:31;;;;;;;15.90;13.23;;;10.50;99.90;;;;;;5051540;28;20178;-49
2023/10/26 03:59:57;;;;;;;17.48;13.15;;;10.50;99.90;;;;;;5051256;28;20181;-51
2023/10/26 04:02:22;;;;;;;18.10;13.00;;;10.50;99.90;;;;;;5051600;28;20175;-49
2023/10/26 04:04:50;;;;;;;16.92;13.63;;;10.50;99.90;;;;;;5051698;28;20626;-52
2023/10/26 04:07:16;;;;;;;18.85;13.55;;;10.50;99.90;;;;;;5051999;28;20202;-51
2023/10/26 04:09:41;;;;;;;16.88;12.77;;;10.50;99.90;;;;;;5051452;28;20214;-55
2023/10/26 04:12:07;;;;;;;17.77;13.80;;;10.40;99.90;;;;;;5051242;28;20175;-50
2023/10/26 04:14:33;;;;;;;17.55;13.60;;;10.50;99.90;;;;;;5051247;28;20163;-50
2023/10/26 04:16:58;;;;;;;18.35;13.35;;;10.40;99.90;;;;;;5051723;28;20645;-50
2023/10/26 04:19:24;;;;;;;18.15;13.18;;;10.50;99.90;;;;;;5055332;28;20159;-51
2023/10/26 04:21:49;;;;;;;17.05;12.77;;;10.40;99.90;;;;;;5055350;28;20641;-54
2023/10/26 04:24:15;;;;;;;13.88;11.85;;;10.40;99.90;;;;;;5055654;28;20166;-56
2023/10/26 04:26:41;;;;;;;17.67;12.88;;;10.40;99.90;;;;;;5055279;28;20236;-53
2023/10/26 04:29:07;;;;;;;19.63;13.63;;;10.40;99.90;;;;;;5054842;28;20220;-52
2023/10/26 04:31:33;;;;;;;16.20;12.63;;;10.30;99.90;;;;;;5055163;28;20178;-53
2023/10/26 04:33:59;;;;;;;18.98;13.00;;;10.30;99.90;;;;;;5055092;28;20253;-50
2023/10/26 04:36:25;;;;;;;17.35;13.40;;;10.30;99.90;;;;;;5055334;28;20209;-50
2023/10/26 04:38:50;;;;;;;20.80;13.70;;;10.40;99.90;;;;;;5055022;28;20614;-57
2023/10/26 04:41:16;;;;;;;15.48;12.73;;;10.30;99.90;;;;;;5055727;28;20597;-53
2023/10/26 04:43:42;;;;;;;18.25;14.13;;;10.40;99.90;;;;;;5055217;28;20163;-54
2023/10/26 04:46:07;;;;;;;17.17;13.30;;;10.30;99.90;;;;;;5054944;28;20171;-54
2023/10/26 04:48:33;;;;;;;16.02;12.55;;;10.30;99.90;;;;;;5054656;28;20259;-51
2023/10/26 04:50:59;;;;;;;18.48;13.95;;;10.30;99.90;;;;;;5054775;28;20295;-50
2023/10/26 04:53:24;;;;;;;21.65;13.80;;;10.30;99.90;;;;;;5054836;28;20537;-60
2023/10/26 04:55:50;;;;;;;21.17;15.43;;;10.30;99.90;;;;;;5054538;28;20197;-49
2023/10/26 04:58:15;;;;;;;19.60;16.35;;;10.30;99.90;;;;;;5054891;28;20177;-51
2023/10/26 05:00:41;;;;;;;20.63;14.27;;;10.30;99.90;;;;;;5054305;28;20171;-51
2023/10/26 05:03:06;;;;;;;21.55;13.85;;;10.30;99.90;;;;;;5054415;28;20198;-56
2023/10/26 05:05:32;;;;;;;20.08;14.27;;;10.30;99.90;;;;;;5054459;28;20171;-51
2023/10/26 05:07:58;;;;;;;21.00;15.25;;;10.30;99.90;;;;;;5054493;28;20623;-53
2023/10/26 05:10:23;;;;;;;18.63;14.07;;;10.30;99.90;;;;;;5054612;28;20700;-49
2023/10/26 05:12:49;;;;;;;16.02;13.18;;;10.40;99.90;;;;;;5054384;28;20584;-51
2023/10/26 05:15:15;;;;;;;18.60;13.18;;;10.30;99.90;;;;;;5054790;28;20181;-50
2023/10/26 05:17:40;;;;;;;18.38;13.23;;;10.30;99.90;;;;;;5054330;28;20178;-50
2023/10/26 05:20:09;;;;;;;17.80;12.48;;;10.30;99.90;;;;;;5054271;28;20687;-51
2023/10/26 05:22:34;;;;;;;18.33;12.65;;;10.30;99.90;;;;;;5054228;28;20241;-51
2023/10/26 05:25:04;;;;;;;17.08;13.48;;;10.40;99.90;;;;;;5054254;28;20197;-53
2023/10/26 05:27:30;;;;;;;17.88;12.57;;;10.40;99.90;;;;;;5054418;28;20171;-71
2023/10/26 05:29:55;;;;;;;21.90;13.75;;;10.30;99.90;;;;;;5052820;28;20205;-67
2023/10/26 05:32:21;;;;;;;18.52;13.15;;;10.30;99.90;;;;;;5054322;28;20170;-64
2023/10/26 05:34:47;;;;;;;18.55;13.18;;;10.30;99.90;;;;;;5054797;28;20615;-60
2023/10/26 05:37:12;;;;;;;18.25;13.60;;;10.40;99.90;;;;;;5053978;28;20163;-71
2023/10/26 05:39:38;;;;;;;23.65;14.55;;;10.30;99.90;;;;;;5054022;28;20178;-54
2023/10/26 05:42:04;;;;;;;21.23;13.98;;;10.30;99.90;;;;;;5053887;28;20169;-60
2023/10/26 05:44:31;;;;;;;21.90;14.50;;;10.30;99.90;;;;;;5053885;28;20155;-65
2023/10/26 05:46:57;;;;;;;20.23;13.45;;;10.30;99.90;;;;;;5053461;28;20519;-70
2023/10/26 05:49:23;;;;;;;21.77;14.23;;;10.20;99.90;;;;;;5053578;28;20268;-69
2023/10/26 05:51:48;;;;;;;23.08;13.82;;;10.30;99.90;;;;;;5054062;28;20175;-68
2023/10/26 05:54:14;;;;;;;19.25;14.20;;;11.40;99.90;;;;;;5054245;28;20173;-51
2023/10/26 05:56:39;;;;;;;20.35;14.40;;;10.10;99.90;;;;;;5053592;28;20565;-50
2023/10/26 05:59:05;;;;;;;22.23;15.40;;;10.20;99.90;;;;;;5053520;28;20171;-52
2023/10/26 06:01:31;;;;;;;23.95;15.85;;;10.00;99.90;;;;;;5053497;28;20162;-56
2023/10/26 06:03:56;;;;;;;21.75;15.90;;;10.10;99.90;;;;;;5053393;28;20159;-51
2023/10/26 06:06:22;;;;;;;22.10;15.48;;;10.00;99.90;;;;;;5053291;28;20228;-64
2023/10/26 06:08:47;;;;;;;22.23;15.18;;;10.10;99.90;;;;;;5053790;28;20224;-67
2023/10/26 06:11:13;;;;;;;26.48;15.02;;;10.00;99.90;;;;;;5053485;28;20217;-61
2023/10/26 06:13:38;;;;;;;20.70;15.02;;;9.90;99.90;;;;;;5053382;28;20232;-57
2023/10/26 06:16:04;;;;;;;25.20;16.13;;;9.90;99.90;;;;;;5053316;28;20174;-52
2023/10/26 06:18:32;;;;;;;21.80;15.07;;;9.90;99.90;;;;;;5053261;28;20167;-51
2023/10/26 06:20:59;;;;;;;22.92;15.60;;;9.80;99.90;;;;;;5053173;28;20622;-52
2023/10/26 06:23:27;;;;;;;23.73;14.98;;;9.90;99.90;;;;;;5053155;28;20166;-53
2023/10/26 06:25:58;;;;;;;25.50;15.02;;;9.70;99.90;;;;;;5053275;28;20177;-50
2023/10/26 06:28:24;;;;;;;25.50;15.77;;;9.80;99.90;;;;;;5053283;28;20170;-50
2023/10/26 06:30:50;;;;;;;22.67;14.95;;;9.80;99.90;;;;;;5052876;28;20567;-50
2023/10/26 06:33:15;;;;;;;24.33;15.32;;;9.80;99.90;;;;;;5053397;28;20174;-50
2023/10/26 06:35:41;;;;;;;22.85;15.63;;;9.70;99.90;;;;;;5053095;28;20623;-50
2023/10/26 06:38:07;;;;;;;25.65;15.38;;;9.80;99.90;;;;;;5052793;28;20183;-50
2023/10/26 06:40:32;;;;;;;24.92;15.55;;;9.80;99.90;;;;;;5052594;28;20198;-50
2023/10/26 06:43:00;;;;;;;22.17;15.25;;;9.70;99.90;;;;;;5052700;28;20190;-52
2023/10/26 06:45:26;;;;;;;22.77;15.60;;;9.70;99.90;;;;;;5052685;28;20178;-53
2023/10/26 06:47:51;;;;;;;25.30;15.95;;;9.80;99.90;;;;;;5052409;28;20210;-53
2023/10/26 06:50:17;;;;;;;24.30;16.38;;;9.80;99.90;;;;;;5052961;28;20237;-55
2023/10/26 06:52:43;;;;;;;23.67;15.95;;;9.90;99.90;;;;;;5052477;28;20171;-54
2023/10/26 06:55:14;;;;;;;25.23;16.58;;;9.90;99.90;;;;;;5052463;28;20259;-50
2023/10/26 06:57:40;;;;;;;24.23;16.08;;;9.90;99.90;;;;;;5052665;28;20179;-54
2023/10/26 07:00:07;;;;;;;21.90;15.15;;;9.80;99.90;;;;;;5051108;28;20209;-53
2023/10/26 07:02:32;;;;;;;26.50;15.93;;;9.90;99.90;;;;;;5052322;28;20174;-52
2023/10/26 07:04:59;;;;;;;23.65;15.75;;;9.90;99.90;;;;;;5052279;28;20171;-51
2023/10/26 07:07:25;;;;;;;22.45;15.90;;;9.90;99.90;;;;;;5052453;28;20314;-50
2023/10/26 07:09:51;;;;;;;26.70;17.27;;;9.90;99.90;;;;;;5052049;28;20622;-50
2023/10/26 07:12:17;;;;;;;26.48;16.40;;;10.00;99.90;;;;;;5052820;28;20175;-58
2023/10/26 07:14:43;;;;;;;24.50;15.27;;;10.00;99.90;;;;;;5052316;28;20198;-55
2023/10/26 07:17:09;;;;;;;23.63;14.98;;;10.10;99.90;;;;;;5052348;28;20174;-50
2023/10/26 07:19:34;;;;;;;24.58;15.90;;;10.00;99.90;;;;;;5050713;28;20163;-51
2023/10/26 07:22:00;;;;;;;24.50;16.08;;;10.10;99.90;;;;;;5052025;28;20174;-49
2023/10/26 07:24:25;;;;;;;28.25;15.70;;;10.20;99.90;;;;;;5050664;28;20171;-50
2023/10/26 07:26:51;;;;;;;23.13;16.35;;;10.30;99.90;;;;;;5051837;28;20159;-56
2023/10/26 07:29:16;;;;;;;19.45;14.88;;;10.20;99.90;;;;;;5052206;28;20194;-68
2023/10/26 07:31:43;;;;;;;21.73;15.18;;;10.30;99.90;;;;;;5051811;28;20171;-50
2023/10/26 07:34:09;;;;;;;23.02;15.55;;;10.30;99.90;;;;;;5051699;28;20254;-53
2023/10/26 07:36:35;;;;;;;22.85;16.13;;;10.30;99.90;;;;;;5051695;28;20242;-50
2023/10/26 07:39:00;;;;;;;18.92;14.57;;;10.30;99.90;;;;;;5051712;28;20182;-55
2023/10/26 07:41:26;;;;;;;22.15;15.70;;;10.30;99.90;;;;;;5051657;28;20262;-50
2023/10/26 07:43:52;;;;;;;21.15;15.27;;;10.40;99.90;;;;;;5051577;28;20170;-55
2023/10/26 07:46:17;;;;;;;21.40;16.00;;;10.40;99.90;;;;;;5051992;28;20532;-50
2023/10/26 07:48:43;;;;;;;17.88;15.25;;;10.50;99.90;;;;;;5051378;28;20226;-57
2023/10/26 07:51:08;;;;;;;22.20;16.05;;;10.60;99.90;;;;;;5051310;28;20205;-53
2023/10/26 07:53:34;;;;;;;20.15;14.45;;;10.60;99.90;;;;;;5051250;28;20173;-51
2023/10/26 07:56:00;;;;;;;20.77;15.80;;;10.60;99.90;;;;;;5051679;28;20177;-59
2023/10/26 07:58:27;;;;;;;20.17;14.90;;;10.60;99.90;;;;;;5051469;28;20163;-51
2023/10/26 08:00:53;;;;;;;21.02;15.63;;;10.60;99.90;;;;;;5051365;28;20174;-50
2023/10/26 08:03:18;;;;;;;22.33;16.38;;;10.80;99.90;;;;;;5051857;28;20178;-51
2023/10/26 08:05:54;;;;;;;21.23;15.85;;;10.80;99.90;;;;;;5051824;28;20166;-50
2023/10/26 08:08:19;;;;;;;22.15;14.98;;;11.00;99.90;;;;;;5051434;28;20194;-50
2023/10/26 08:10:45;;;;;;;22.52;16.15;;;10.90;99.90;;;;;;5051656;28;20248;-52
2023/10/26 08:13:10;;;;;;;24.70;15.70;;;11.00;99.90;;;;;;5051267;28;20163;-50
2023/10/26 08:15:36;;;;;;;23.83;16.38;;;11.10;99.90;;;;;;5051282;28;20276;-55
2023/10/26 08:18:01;;;;;;;20.27;15.48;;;11.20;99.90;;;;;;5051230;28;20170;-54
2023/10/26 08:20:27;;;;;;;22.73;15.52;;;11.30;99.90;;;;;;5051537;28;20182;-55
2023/10/26 08:22:52;;;;;;;22.35;15.55;;;11.20;99.90;;;;;;5051174;28;20166;-51
2023/10/26 08:25:18;;;;;;;20.38;15.32;;;11.10;99.90;;;;;;5051599;28;20711;-50
2023/10/26 08:27:44;;;;;;;20.90;16.35;;;11.00;99.90;;;;;;5051637;28;20206;-57
2023/10/26 08:30:10;;;;;;;20.95;16.00;;;11.30;99.90;;;;;;5049849;28;20199;-52
2023/10/26 08:32:35;;;;;;;25.83;17.95;;;11.50;99.90;;;;;;5051030;28;20171;-55
2023/10/26 08:35:01;;;;;;;26.15;18.95;;;11.50;99.90;;;;;;5051126;28;20167;-52
2023/10/26 08:37:27;;;;;;;23.13;17.85;;;11.40;99.90;;;;;;5051043;28;20178;-50
2023/10/26 08:39:53;;;;;;;22.33;17.75;;;11.40;99.90;;;;;;5049857;28;20607;-50
2023/10/26 08:42:19;;;;;;;27.63;19.30;;;11.30;99.90;;;;;;5051024;28;20216;-51
2023/10/26 08:44:45;;;;;;;25.55;18.75;;;11.40;99.90;;;;;;5051486;28;20221;-52
2023/10/26 08:47:14;;;;;;;26.63;20.48;;;11.40;99.90;;;;;;5050814;28;20179;-50
2023/10/26 08:49:42;;;;;;;23.80;19.90;;;11.50;99.90;;;;;;5051118;28;20215;-49
2023/10/26 08:52:08;;;;;;;27.25;20.90;;;11.40;99.90;;;;;;5051211;28;20816;-50
2023/10/26 08:54:33;;;;;;;25.88;20.05;;;11.50;99.90;;;;;;5050869;28;20217;-51
2023/10/26 08:57:10;;;;;;;28.15;20.23;;;11.50;99.90;;;;;;5049575;28;20179;-50
2023/10/26 08:59:36;;;;;;;27.05;21.23;;;11.40;99.90;;;;;;5050798;28;20171;-50
2023/10/26 09:02:01;;;;;;;25.10;20.35;;;11.30;99.90;;;;;;5050848;28;20213;-50
2023/10/26 09:04:27;;;;;;;26.52;19.92;;;11.40;99.90;;;;;;5053574;28;20171;-52
2023/10/26 09:06:53;;;;;;;24.98;19.55;;;11.50;99.90;;;;;;5054571;28;20177;-51
2023/10/26 09:09:19;;;;;;;29.00;20.92;;;11.40;99.90;;;;;;5054408;28;20289;-51
2023/10/26 09:11:48;;;;;;;37.88;26.95;;;11.40;99.90;;;;;;5054886;28;20527;-50
2023/10/26 09:14:15;;;;;;;38.50;25.33;;;11.40;99.90;;;;;;5055043;28;20171;-50
2023/10/26 09:16:43;;;;;;;32.55;23.95;;;11.40;99.90;;;;;;5054349;28;20166;-50
2023/10/26 09:19:08;;;;;;;31.77;23.55;;;11.30;99.90;;;;;;5054241;28;20170;-51
2023/10/26 09:21:51;;;;;;;24.90;19.10;;;11.30;99.90;;;;;;5054261;28;20174;-53
2023/10/26 09:24:27;;;;;;;24.45;18.80;;;11.40;99.90;;;;;;5054699;28;20194;-50
2023/10/26 09:26:54;;;;;;;25.50;19.02;;;11.40;99.90;;;;;;5054399;28;20178;-67
2023/10/26 09:29:41;;;;;;;27.55;20.02;;;11.50;99.90;;;;;;5054261;28;20202;-71
2023/10/26 09:32:10;;;;;;;25.85;19.30;;;11.70;99.90;;;;;;5054049;28;20190;-71
2023/10/26 09:34:44;;;;;;;33.50;27.73;;;11.90;99.90;;;;;;5054301;28;20531;-71
2023/10/26 09:37:11;;;;;;;25.67;19.88;;;12.20;99.90;;;;;;5054181;28;20581;-51
2023/10/26 09:39:38;;;;;;;23.25;18.25;;;12.30;99.90;;;;;;5054139;28;20167;-50
2023/10/26 09:42:11;;;;;;;21.40;16.77;;;12.20;99.90;;;;;;5054040;28;20588;-50
2023/10/26 09:44:37;;;;;;;20.67;16.42;;;12.30;99.90;;;;;;5054046;28;20167;-51
2023/10/26 09:47:03;;;;;;;21.73;16.75;;;12.40;99.90;;;;;;5053879;28;20174;-58
2023/10/26 09:49:30;;;;;;;25.27;17.08;;;12.40;99.90;;;;;;5053913;28;20247;-50
2023/10/26 09:51:58;;;;;;;22.67;17.83;;;12.40;99.90;;;;;;5053954;28;20198;-70
2023/10/26 09:54:31;;;;;;;19.45;15.77;;;12.60;99.90;;;;;;5053892;28;20209;-67
2023/10/26 09:57:14;;;;;;;21.67;16.90;;;12.70;99.90;;;;;;5053689;28;20300;-54
2023/10/26 09:59:40;;;;;;;19.75;16.20;;;12.60;99.90;;;;;;5052295;28;20174;-54
2023/10/26 10:02:15;;;;;;;22.23;17.65;;;12.60;99.90;;;;;;5057953;28;20181;-61
2023/10/26 10:04:41;;;;;;;19.13;15.68;;;12.60;99.90;;;;;;5073469;28;20693;-66
2023/10/26 10:07:07;;;;;;;23.20;16.02;;;12.70;99.90;;;;;;5073473;28;20245;-61
2023/10/26 10:09:52;;;;;;;20.60;15.35;;;12.70;99.90;;;;;;5073399;28;20396;-70
2023/10/26 10:12:18;;;;;;;19.95;15.38;;;12.70;99.90;;;;;;5073683;28;20533;-70
2023/10/26 10:14:46;;;;;;;24.35;15.88;;;12.90;99.90;;;;;;5073285;28;20162;-68
2023/10/26 10:17:12;;;;;;;20.65;15.77;;;13.10;99.90;;;;;;5073257;28;20711;-70
2023/10/26 10:19:40;;;;;;;20.70;15.10;;;13.20;99.90;;;;;;5073235;28;20233;-68
2023/10/26 10:22:33;;;;;;;14.88;13.20;;;13.20;99.90;;;;;;5073137;28;20705;-53
2023/10/26 10:24:59;;;;;;;15.77;12.63;;;13.40;99.90;;;;;;5073121;28;20250;-71
2023/10/26 10:27:26;;;;;;;13.73;10.38;;;13.40;99.90;;;;;;5072975;28;20193;-64
2023/10/26 10:29:55;;;;;;;13.73;10.35;;;13.40;99.90;;;;;;5073071;28;20209;-61
2023/10/26 10:32:49;;;;;;;15.70;11.95;;;13.30;99.90;;;;;;5072906;28;20207;-71
2023/10/26 10:35:21;;;;;;;10.55;9.45;;;13.40;99.90;;;;;;5073589;28;20205;-65
2023/10/26 10:38:13;;;;;;;11.05;9.02;;;13.50;99.90;;;;;;5073323;28;20252;-65
2023/10/26 10:40:40;;;;;;;11.73;9.13;;;13.60;99.90;;;;;;5072595;28;20626;-70
2023/10/26 10:43:05;;;;;;;9.65;8.52;;;13.50;99.90;;;;;;5072729;28;20162;-62
2023/10/26 10:45:31;;;;;;;10.13;8.50;;;13.40;99.90;;;;;;5072669;28;20174;-58
2023/10/26 10:47:57;;;;;;;10.50;7.47;;;13.20;99.90;;;;;;5072408;28;20221;-63
2023/10/26 10:50:24;;;;;;;8.57;5.93;;;13.20;99.90;;;;;;5072486;28;20248;-66
2023/10/26 10:52:54;;;;;;;6.60;5.85;;;13.10;99.90;;;;;;5072739;28;20173;-51
2023/10/26 10:55:31;;;;;;;7.28;6.40;;;13.10;99.90;;;;;;5071221;28;20185;-50
2023/10/26 10:57:56;;;;;;;6.45;5.82;;;13.20;99.90;;;;;;5072303;28;20198;-51
2023/10/26 11:00:27;;;;;;;7.30;5.85;;;13.10;99.90;;;;;;5072405;28;20767;-50
2023/10/26 11:02:56;;;;;;;11.60;9.38;;;13.20;99.90;;;;;;5072315;28;20517;-52
2023/10/26 11:05:37;;;;;;;33.78;20.40;;;13.30;99.90;;;;;;5072611;28;20524;-50
2023/10/26 11:08:05;;;;;;;37.13;21.73;;;13.40;99.90;;;;;;5072370;28;20659;-54
2023/10/26 11:10:31;;;;;;;108.78;56.90;;;13.40;99.90;;;;;;5072176;28;20210;-52
2023/10/26 11:12:56;;;;;;;10.52;9.15;;;13.50;99.90;;;;;;5071987;28;20686;-50
2023/10/26 11:15:39;;;;;;;13.98;12.50;;;13.50;99.90;;;;;;5070730;28;20179;-50
2023/10/26 11:18:07;;;;;;;19.95;12.25;;;13.50;99.90;;;;;;5072092;28;20255;-49
2023/10/26 11:20:41;;;;;;;16.52;14.55;;;13.60;99.90;;;;;;5072241;28;20220;-51
2023/10/26 11:23:08;;;;;;;24.52;19.98;;;13.70;99.90;;;;;;5071855;28;20165;-52
2023/10/26 11:25:34;;;;;;;13.73;11.70;;;13.60;99.90;;;;;;5072105;28;20173;-51
2023/10/26 11:28:00;;;;;;;13.65;9.88;;;13.70;99.90;;;;;;5070875;28;20162;-52
2023/10/26 11:30:26;;;;;;;10.20;8.57;;;13.60;99.90;;;;;;5071522;28;20644;-50
2023/10/26 11:32:51;;;;;;;11.73;10.10;;;13.40;99.90;;;;;;5071744;28;20621;-48
2023/10/26 11:35:17;;;;;;;9.63;8.63;;;13.40;99.90;;;;;;5072175;28;20185;-49
2023/10/26 11:37:44;;;;;;;11.68;10.23;;;13.40;99.90;;;;;;5071687;28;20249;-50
2023/10/26 11:40:11;;;;;;;17.92;14.25;;;13.40;99.90;;;;;;5071650;28;20172;-54
2023/10/26 11:42:58;;;;;;;12.75;10.88;;;13.50;99.90;;;;;;5071508;28;20249;-58
2023/10/26 11:45:27;;;;;;;12.35;10.77;;;13.60;99.90;;;;;;5071643;28;20196;-53
2023/10/26 11:47:53;;;;;;;12.20;10.57;;;13.50;99.90;;;;;;5071473;28;20220;-48
2023/10/26 11:50:26;;;;;;;13.13;10.63;;;13.50;99.90;;;;;;5070201;28;20568;-63
2023/10/26 11:52:54;;;;;;;12.82;10.70;;;13.40;99.90;;;;;;5070157;28;20170;-57
2023/10/26 11:55:21;;;;;;;16.52;9.82;;;13.40;99.90;;;;;;5071315;28;20162;-51
2023/10/26 11:57:47;;;;;;;9.93;8.93;;;13.30;99.90;;;;;;5070552;28;20166;-53
2023/10/26 12:00:14;;;;;;;14.45;8.95;;;13.40;99.90;;;;;;5071842;28;20158;-52
2023/10/26 12:02:40;;;;;;;12.32;8.95;;;13.50;99.90;;;;;;5071583;28;20253;-50
2023/10/26 12:05:07;;;;;;;10.70;9.38;;;13.50;99.90;;;;;;5071361;28;20524;-50
2023/10/26 12:07:33;;;;;;;9.52;8.50;;;13.70;99.90;;;;;;5071415;28;20200;-51
2023/10/26 12:10:01;;;;;;;10.88;7.93;;;13.70;99.90;;;;;;5071340;28;20691;-49
2023/10/26 12:12:26;;;;;;;10.93;8.73;;;13.60;99.90;;;;;;5071332;28;20212;-52
2023/10/26 12:14:52;;;;;;;11.88;7.57;;;13.60;99.90;;;;;;5071604;28;20170;-51
2023/10/26 12:17:17;;;;;;;8.05;7.32;;;13.50;99.90;;;;;;5070399;28;20644;-49
2023/10/26 12:19:43;;;;;;;10.90;7.60;;;13.50;99.90;;;;;;5071625;28;20291;-49
2023/10/26 12:22:08;;;;;;;10.82;8.40;;;13.50;99.90;;;;;;5071183;28;20173;-48
2023/10/26 12:24:35;;;;;;;10.20;8.25;;;13.60;99.90;;;;;;5071222;28;20173;-48
2023/10/26 12:27:01;;;;;;;10.10;9.10;;;13.60;99.90;;;;;;5071045;28;20170;-50
2023/10/26 12:29:27;;;;;;;14.05;10.52;;;13.70;99.90;;;;;;5071119;28;20217;-48